createdAt,value
2023-03-24T00:00:16.084Z,53.80
2023-03-24T00:02:51.505Z,53.90
2023-03-24T00:05:28.453Z,54.00
2023-03-24T00:08:02.933Z,54.00
2023-03-24T00:10:36.765Z,54.10
2023-03-24T00:13:10.658Z,54.20
2023-03-24T00:15:45.433Z,54.30
2023-03-24T00:18:22.485Z,54.50
2023-03-24T00:20:58.865Z,54.40
2023-03-24T00:23:33.743Z,54.60
2023-03-24T00:26:08.872Z,54.70
2023-03-24T00:28:44.034Z,54.80
2023-03-24T00:31:19.335Z,54.90
2023-03-24T00:33:53.964Z,55.00
2023-03-24T00:36:29.561Z,55.10
2023-03-24T00:39:03.710Z,55.10
2023-03-24T00:41:37.166Z,55.20
2023-03-24T00:44:18.142Z,55.20
2023-03-24T00:46:56.525Z,55.20
2023-03-24T00:49:43.100Z,55.20
2023-03-24T00:52:20.651Z,55.30
2023-03-24T00:54:58.231Z,55.30
2023-03-24T00:57:34.813Z,55.40
2023-03-24T01:00:16.873Z,56.00
2023-03-24T01:02:55.033Z,55.40
2023-03-24T01:05:30.557Z,55.50
2023-03-24T01:08:06.381Z,55.50
2023-03-24T01:10:50.193Z,55.50
2023-03-24T01:13:29.324Z,55.60
2023-03-24T01:16:03.314Z,55.60
2023-03-24T01:18:40.752Z,56.20
2023-03-24T01:21:14.565Z,55.70
2023-03-24T01:23:48.063Z,55.80
2023-03-24T01:26:21.690Z,55.80
2023-03-24T01:28:55.420Z,55.80
2023-03-24T01:31:28.898Z,55.90
2023-03-24T01:34:03.887Z,55.90
2023-03-24T01:36:37.409Z,55.80
2023-03-24T01:39:11.011Z,55.80
2023-03-24T01:41:44.515Z,55.90
2023-03-24T01:44:39.433Z,56.00
2023-03-24T01:47:13.668Z,56.00
2023-03-24T01:49:53.160Z,55.80
2023-03-24T01:52:30.373Z,55.90
2023-03-24T01:55:08.190Z,55.90
2023-03-24T01:57:44.160Z,56.00
2023-03-24T02:00:20.635Z,56.00
2023-03-24T02:03:20.990Z,55.90
2023-03-24T02:06:03.519Z,55.90
2023-03-24T02:08:42.557Z,56.10
2023-03-24T02:11:16.510Z,56.10
2023-03-24T02:13:57.239Z,56.10
2023-03-24T02:16:50.404Z,56.00
2023-03-24T02:19:56.243Z,56.20
2023-03-24T02:23:05.471Z,56.30
2023-03-24T02:26:19.491Z,56.40
2023-03-24T02:29:03.676Z,56.40
2023-03-24T02:32:19.224Z,56.30
2023-03-24T02:35:41.235Z,56.40
2023-03-24T02:38:43.979Z,56.30
2023-03-24T02:41:24.747Z,56.60
2023-03-24T02:44:06.632Z,56.40
2023-03-24T02:46:46.691Z,56.40
2023-03-24T02:49:25.531Z,56.40
2023-03-24T02:52:05.294Z,56.40
2023-03-24T02:54:48.186Z,56.40
2023-03-24T02:57:31.080Z,56.40
2023-03-24T03:00:18.588Z,56.40
2023-03-24T03:03:20.457Z,56.40
2023-03-24T03:05:58.844Z,56.40
2023-03-24T03:08:33.964Z,56.50
2023-03-24T03:11:13.307Z,56.50
2023-03-24T03:13:54.068Z,56.40
2023-03-24T03:16:38.443Z,56.40
2023-03-24T03:19:17.946Z,56.50
2023-03-24T03:21:54.991Z,56.50
2023-03-24T03:24:33.056Z,56.50
2023-03-24T03:27:14.895Z,56.60
2023-03-24T03:29:55.124Z,56.60
2023-03-24T03:32:31.685Z,56.60
2023-03-24T03:35:11.037Z,56.50
2023-03-24T03:37:52.674Z,56.50
2023-03-24T03:40:32.287Z,56.60
2023-03-24T03:43:13.439Z,56.40
2023-03-24T03:45:49.151Z,56.50
2023-03-24T03:48:26.728Z,56.50
2023-03-24T03:51:13.031Z,56.60
2023-03-24T03:53:53.737Z,56.60
2023-03-24T03:56:30.402Z,56.60
2023-03-24T03:59:33.905Z,56.60
2023-03-24T04:02:26.876Z,56.60
2023-03-24T04:05:15.328Z,56.60
2023-03-24T04:08:19.674Z,56.60
2023-03-24T04:11:32.602Z,56.60
2023-03-24T04:14:45.823Z,56.70
2023-03-24T04:18:11.399Z,56.70
2023-03-24T04:21:33.847Z,56.70
2023-03-24T04:24:26.660Z,56.80
2023-03-24T04:27:09.419Z,56.80
2023-03-24T04:29:53.138Z,56.80
2023-03-24T04:32:33.668Z,56.80
2023-03-24T04:35:14.336Z,56.90
2023-03-24T04:38:19.033Z,57.00
2023-03-24T04:40:59.509Z,57.00
2023-03-24T04:43:36.710Z,57.10
2023-03-24T04:46:17.795Z,57.10
2023-03-24T04:49:19.244Z,57.10
2023-03-24T04:51:55.982Z,57.10
2023-03-24T04:54:32.814Z,57.10
2023-03-24T04:57:11.253Z,57.20
2023-03-24T04:59:51.197Z,57.10
2023-03-24T05:02:26.184Z,57.20
2023-03-24T05:05:17.195Z,57.00
2023-03-24T05:07:54.805Z,57.50
2023-03-24T05:10:28.687Z,57.00
2023-03-24T05:13:04.739Z,57.10
2023-03-24T05:15:54.883Z,57.00
2023-03-24T05:18:37.198Z,57.10
2023-03-24T05:21:11.165Z,57.00
2023-03-24T05:23:45.892Z,57.20
2023-03-24T05:26:19.376Z,57.30
2023-03-24T05:29:07.042Z,57.30
2023-03-24T05:31:41.214Z,57.40
2023-03-24T05:34:16.450Z,57.20
2023-03-24T05:37:17.689Z,57.80
2023-03-24T05:39:56.599Z,57.30
2023-03-24T05:42:53.369Z,57.20
2023-03-24T05:45:30.261Z,57.30
2023-03-24T05:48:05.513Z,57.30
2023-03-24T05:51:05.446Z,57.20
2023-03-24T05:53:38.962Z,57.10
2023-03-24T05:56:33.842Z,57.20
2023-03-24T05:59:19.404Z,57.30
2023-03-24T06:02:08.615Z,57.40
2023-03-24T06:05:05.378Z,57.30
2023-03-24T06:07:39.065Z,57.20
2023-03-24T06:10:14.429Z,57.40
2023-03-24T06:12:56.559Z,57.40
2023-03-24T06:15:31.099Z,57.10
2023-03-24T06:18:18.365Z,57.50
2023-03-24T06:20:56.485Z,57.50
2023-03-24T06:23:35.567Z,57.80
2023-03-24T06:26:16.770Z,58.00
2023-03-24T06:29:02.121Z,58.10
2023-03-24T06:31:39.859Z,58.50
2023-03-24T06:34:13.728Z,58.50
2023-03-24T06:36:49.876Z,58.70
2023-03-24T06:39:23.999Z,58.90
2023-03-24T06:42:00.399Z,58.90
2023-03-24T06:44:37.946Z,58.90
2023-03-24T06:47:11.563Z,58.90
2023-03-24T06:49:44.933Z,59.00
2023-03-24T06:52:18.288Z,59.00
2023-03-24T06:54:51.616Z,59.00
2023-03-24T06:57:25.003Z,59.10
2023-03-24T07:00:23.395Z,59.10
2023-03-24T07:03:14.118Z,59.20
2023-03-24T07:05:50.393Z,59.30
2023-03-24T07:08:37.319Z,59.40
2023-03-24T07:11:11.566Z,59.30
2023-03-24T07:13:51.171Z,59.40
2023-03-24T07:16:25.992Z,59.30
2023-03-24T07:19:08.739Z,59.10
2023-03-24T07:21:46.928Z,59.10
2023-03-24T07:24:24.133Z,58.80
2023-03-24T07:27:09.589Z,58.50
2023-03-24T07:29:43.493Z,58.40
2023-03-24T07:32:39.573Z,58.40
2023-03-24T07:35:14.677Z,58.20
2023-03-24T07:37:48.072Z,58.40
2023-03-24T07:40:22.172Z,58.20
2023-03-24T07:42:55.682Z,58.00
2023-03-24T07:45:47.052Z,57.80
2023-03-24T07:48:21.994Z,57.70
2023-03-24T07:50:56.052Z,57.30
2023-03-24T07:53:52.429Z,57.10
2023-03-24T07:56:55.187Z,51.80
2023-03-24T07:59:30.114Z,48.40
2023-03-24T08:02:25.238Z,47.50
2023-03-24T08:05:30.762Z,46.60
2023-03-24T08:08:22.141Z,45.60
2023-03-24T08:10:55.636Z,43.90
2023-03-24T08:13:29.030Z,43.90
2023-03-24T08:16:03.123Z,44.00
2023-03-24T08:18:36.653Z,44.80
2023-03-24T08:21:13.369Z,45.60
2023-03-24T08:23:46.712Z,45.70
2023-03-24T08:26:20.175Z,46.00
2023-03-24T08:28:53.694Z,46.30
2023-03-24T08:31:33.189Z,46.40
2023-03-24T08:34:07.857Z,46.80
2023-03-24T08:36:42.626Z,47.00
2023-03-24T08:39:15.947Z,47.00
2023-03-24T08:41:50.391Z,47.30
2023-03-24T08:44:23.817Z,47.60
2023-03-24T08:46:57.315Z,47.50
2023-03-24T08:49:30.684Z,47.60
2023-03-24T08:52:05.566Z,47.80
2023-03-24T08:54:38.859Z,48.00
2023-03-24T08:57:12.157Z,48.20
2023-03-24T08:59:46.409Z,48.40
2023-03-24T09:02:19.926Z,48.70
2023-03-24T09:04:55.848Z,48.90
2023-03-24T09:07:30.732Z,48.90
2023-03-24T09:10:04.945Z,49.00
2023-03-24T09:12:39.653Z,49.30
2023-03-24T09:15:14.235Z,49.50
2023-03-24T09:17:47.591Z,49.70
2023-03-24T09:20:21.496Z,50.00
2023-03-24T09:22:56.969Z,50.20
2023-03-24T09:25:30.384Z,50.50
2023-03-24T09:28:03.783Z,50.60
2023-03-24T09:30:37.201Z,50.80
2023-03-24T09:33:10.606Z,51.00
2023-03-24T09:35:44.070Z,51.10
2023-03-24T09:38:18.865Z,51.20
2023-03-24T09:40:56.316Z,51.30
2023-03-24T09:43:38.154Z,51.40
2023-03-24T09:46:15.584Z,51.50
2023-03-24T09:48:52.922Z,51.60
2023-03-24T09:51:27.796Z,51.70
2023-03-24T09:54:13.913Z,51.90
2023-03-24T09:56:50.915Z,52.00
2023-03-24T09:59:34.201Z,51.90
2023-03-24T10:02:13.375Z,52.20
2023-03-24T10:04:47.128Z,52.30
2023-03-24T10:07:24.234Z,52.30
2023-03-24T10:10:00.892Z,52.50
2023-03-24T10:12:37.886Z,52.60
2023-03-24T10:15:34.706Z,52.90
2023-03-24T10:18:30.344Z,53.10
2023-03-24T10:21:12.212Z,53.40
2023-03-24T10:23:54.701Z,53.40
2023-03-24T10:26:37.658Z,53.40
2023-03-24T10:29:31.050Z,53.50
2023-03-24T10:32:07.785Z,53.60
2023-03-24T10:34:45.211Z,53.60
2023-03-24T10:37:18.707Z,53.60
2023-03-24T10:39:53.036Z,53.70
2023-03-24T10:42:33.861Z,53.60
2023-03-24T10:45:12.656Z,53.40
2023-03-24T10:47:46.354Z,53.80
2023-03-24T10:50:19.819Z,53.10
2023-03-24T10:52:53.448Z,52.80
2023-03-24T10:55:32.421Z,53.20
2023-03-24T10:58:18.674Z,53.30
2023-03-24T11:00:52.074Z,53.20
2023-03-24T11:03:31.622Z,53.30
2023-03-24T11:06:06.985Z,53.50
2023-03-24T11:08:42.057Z,52.30
2023-03-24T11:11:29.279Z,50.80
2023-03-24T11:14:04.984Z,50.90
2023-03-24T11:16:40.087Z,51.40
2023-03-24T11:19:22.326Z,51.70
2023-03-24T11:22:03.480Z,51.90
2023-03-24T11:24:38.696Z,52.10
2023-03-24T11:27:16.563Z,52.30
2023-03-24T11:29:55.069Z,53.00
2023-03-24T11:32:29.943Z,52.50
2023-03-24T11:35:07.241Z,52.40
2023-03-24T11:37:42.172Z,52.50
2023-03-24T11:40:23.379Z,52.50
2023-03-24T11:43:00.143Z,52.30
2023-03-24T11:45:40.947Z,52.30
2023-03-24T11:48:26.013Z,52.10
2023-03-24T11:51:01.076Z,52.10
2023-03-24T11:53:44.394Z,52.40
2023-03-24T11:56:27.278Z,53.10
2023-03-24T11:59:07.691Z,52.70
2023-03-24T12:01:51.156Z,52.90
2023-03-24T12:04:34.587Z,53.10
2023-03-24T12:07:38.157Z,53.10
2023-03-24T12:10:24.519Z,53.40
2023-03-24T12:13:07.023Z,53.50
2023-03-24T12:15:57.529Z,53.50
2023-03-24T12:18:41.795Z,53.60
2023-03-24T12:21:25.573Z,53.80
2023-03-24T12:24:02.216Z,53.60
2023-03-24T12:26:36.584Z,54.00
2023-03-24T12:29:36.698Z,54.30
2023-03-24T12:32:52.599Z,54.30
2023-03-24T12:35:51.719Z,54.60
2023-03-24T12:38:43.424Z,54.20
2023-03-24T12:41:51.716Z,54.20
2023-03-24T12:44:47.023Z,54.20
2023-03-24T12:47:38.276Z,54.40
2023-03-24T12:50:22.367Z,54.40
2023-03-24T12:53:12.809Z,54.30
2023-03-24T12:55:52.204Z,54.40
2023-03-24T12:58:32.554Z,54.40
2023-03-24T13:01:11.403Z,54.20
2023-03-24T13:03:48.696Z,54.20
2023-03-24T13:06:27.069Z,53.90
2023-03-24T13:09:12.003Z,53.70
2023-03-24T13:11:54.518Z,53.10
2023-03-24T13:14:32.245Z,53.30
2023-03-24T13:17:14.560Z,53.50
2023-03-24T13:19:49.364Z,53.70
2023-03-24T13:22:26.020Z,54.00
2023-03-24T13:25:04.534Z,54.40
2023-03-24T13:27:47.300Z,54.40
2023-03-24T13:30:31.867Z,54.50
2023-03-24T13:33:15.657Z,54.40
2023-03-24T13:36:17.711Z,54.60
2023-03-24T13:38:54.589Z,54.90
2023-03-24T13:41:37.686Z,54.90
2023-03-24T13:44:21.269Z,54.90
2023-03-24T13:47:15.999Z,54.90
2023-03-24T13:49:55.939Z,54.70
2023-03-24T13:52:35.610Z,54.70
2023-03-24T13:55:15.564Z,54.40
2023-03-24T13:57:57.088Z,54.30
2023-03-24T14:00:35.421Z,54.30
2023-03-24T14:03:21.075Z,54.20
2023-03-24T14:06:01.140Z,54.20
2023-03-24T14:08:44.786Z,54.40
2023-03-24T14:11:57.828Z,54.60
2023-03-24T14:15:01.441Z,54.70
2023-03-24T14:17:42.182Z,54.90
2023-03-24T14:20:31.781Z,54.90
2023-03-24T14:23:09.016Z,55.00
2023-03-24T14:25:44.380Z,55.10
2023-03-24T14:28:28.371Z,55.20
2023-03-24T14:31:25.337Z,55.20
2023-03-24T14:34:22.423Z,55.20
2023-03-24T14:37:02.949Z,55.20
2023-03-24T14:39:47.549Z,55.30
2023-03-24T14:42:57.955Z,55.10
2023-03-24T14:46:05.579Z,54.90
2023-03-24T14:49:00.877Z,54.90
2023-03-24T14:51:42.151Z,54.60
2023-03-24T14:54:21.082Z,54.70
2023-03-24T14:56:59.739Z,54.40
2023-03-24T14:59:42.345Z,55.00
2023-03-24T15:02:35.649Z,55.70
2023-03-24T15:05:35.174Z,54.80
2023-03-24T15:08:21.839Z,55.00
2023-03-24T15:11:02.773Z,55.30
2023-03-24T15:13:47.863Z,55.50
2023-03-24T15:16:26.029Z,55.80
2023-03-24T15:19:07.727Z,55.80
2023-03-24T15:21:48.039Z,55.70
2023-03-24T15:24:43.427Z,55.80
2023-03-24T15:27:26.766Z,55.60
2023-03-24T15:30:02.806Z,55.50
2023-03-24T15:32:40.580Z,55.40
2023-03-24T15:35:20.655Z,55.20
2023-03-24T15:37:57.637Z,54.90
2023-03-24T15:40:41.242Z,54.80
2023-03-24T15:43:21.150Z,54.20
2023-03-24T15:46:11.031Z,54.00
2023-03-24T15:48:49.157Z,54.00
2023-03-24T15:51:50.439Z,54.50
2023-03-24T15:54:29.528Z,55.20
2023-03-24T15:57:12.903Z,55.20
2023-03-24T15:59:49.479Z,55.10
2023-03-24T16:02:29.494Z,54.90
2023-03-24T16:05:10.693Z,54.50
2023-03-24T16:07:44.824Z,54.20
2023-03-24T16:10:39.598Z,53.80
2023-03-24T16:13:17.712Z,53.10
2023-03-24T16:15:58.903Z,52.90
2023-03-24T16:18:34.706Z,52.50
2023-03-24T16:21:14.423Z,52.20
2023-03-24T16:23:48.668Z,51.80
2023-03-24T16:26:25.625Z,51.50
2023-03-24T16:29:07.942Z,51.10
2023-03-24T16:31:41.738Z,50.60
2023-03-24T16:34:18.977Z,50.50
2023-03-24T16:36:54.305Z,50.50
2023-03-24T16:39:29.340Z,50.60
2023-03-24T16:42:04.116Z,50.60
2023-03-24T16:44:37.605Z,50.50
2023-03-24T16:47:12.283Z,50.40
2023-03-24T16:49:46.307Z,50.40
2023-03-24T16:52:19.703Z,50.40
2023-03-24T16:54:54.265Z,50.40
2023-03-24T16:57:29.004Z,50.40
2023-03-24T17:00:10.645Z,50.40
2023-03-24T17:02:48.212Z,50.30
2023-03-24T17:05:24.401Z,50.40
2023-03-24T17:07:58.514Z,50.40
2023-03-24T17:10:32.177Z,50.50
2023-03-24T17:13:07.274Z,50.50
2023-03-24T17:15:40.928Z,50.60
2023-03-24T17:18:14.944Z,50.60
2023-03-24T17:20:49.052Z,50.80
2023-03-24T17:23:23.344Z,50.80
2023-03-24T17:25:56.686Z,50.80
2023-03-24T17:28:31.900Z,50.90
2023-03-24T17:31:05.830Z,50.90
2023-03-24T17:33:39.539Z,50.60
2023-03-24T17:36:16.534Z,50.50
2023-03-24T17:38:49.981Z,50.50
2023-03-24T17:41:23.726Z,50.60
2023-03-24T17:43:58.615Z,50.60
2023-03-24T17:46:33.019Z,50.50
2023-03-24T17:49:06.821Z,50.60
2023-03-24T17:51:40.122Z,50.50
2023-03-24T17:54:16.748Z,50.50
2023-03-24T17:56:50.371Z,50.60
2023-03-24T17:59:25.420Z,50.60
2023-03-24T18:01:58.970Z,51.10
2023-03-24T18:04:33.660Z,51.50
2023-03-24T18:07:07.190Z,51.80
2023-03-24T18:09:40.849Z,52.00
2023-03-24T18:12:14.941Z,51.80
2023-03-24T18:14:49.828Z,51.80
2023-03-24T18:17:23.539Z,52.40
2023-03-24T18:19:59.595Z,51.80
2023-03-24T18:22:32.954Z,51.60
2023-03-24T18:25:08.582Z,51.50
2023-03-24T18:27:43.497Z,51.80
2023-03-24T18:30:18.456Z,52.00
2023-03-24T18:32:51.879Z,52.20
2023-03-24T18:35:25.490Z,52.30
2023-03-24T18:37:58.858Z,52.30
2023-03-24T18:40:32.352Z,53.10
2023-03-24T18:43:05.721Z,52.40
2023-03-24T18:45:40.594Z,52.60
2023-03-24T18:48:15.797Z,52.70
2023-03-24T18:50:52.023Z,52.70
2023-03-24T18:53:25.890Z,52.70
2023-03-24T18:55:59.278Z,53.10
2023-03-24T18:58:33.759Z,53.20
2023-03-24T19:01:11.109Z,53.10
2023-03-24T19:03:45.388Z,53.10
2023-03-24T19:06:19.935Z,52.90
2023-03-24T19:08:54.252Z,52.70
2023-03-24T19:11:28.060Z,52.60
2023-03-24T19:14:01.266Z,52.50
2023-03-24T19:16:36.095Z,52.70
2023-03-24T19:19:12.525Z,52.80
2023-03-24T19:21:45.912Z,53.10
2023-03-24T19:24:19.484Z,53.30
2023-03-24T19:26:53.209Z,53.60
2023-03-24T19:29:26.558Z,53.40
2023-03-24T19:32:01.427Z,53.40
2023-03-24T19:34:34.895Z,53.30
2023-03-24T19:37:10.286Z,53.30
2023-03-24T19:39:43.647Z,53.30
2023-03-24T19:42:16.971Z,53.30
2023-03-24T19:44:50.459Z,53.10
2023-03-24T19:47:25.389Z,53.10
2023-03-24T19:49:58.898Z,53.10
2023-03-24T19:52:32.254Z,53.80
2023-03-24T19:55:07.134Z,54.00
2023-03-24T19:57:40.585Z,54.00
2023-03-24T20:00:15.631Z,54.10
2023-03-24T20:02:50.500Z,54.80
2023-03-24T20:05:23.938Z,54.80
2023-03-24T20:07:59.739Z,54.90
2023-03-24T20:10:33.376Z,55.00
2023-03-24T20:13:06.692Z,55.00
2023-03-24T20:15:40.045Z,55.00
2023-03-24T20:18:16.383Z,55.00
2023-03-24T20:20:49.700Z,55.00
2023-03-24T20:23:23.417Z,54.90
2023-03-24T20:25:59.263Z,54.80
2023-03-24T20:28:32.917Z,54.80
2023-03-24T20:31:06.640Z,54.70
2023-03-24T20:33:41.272Z,54.70
2023-03-24T20:36:14.646Z,54.60
2023-03-24T20:38:48.248Z,54.60
2023-03-24T20:41:22.045Z,54.50
2023-03-24T20:43:55.547Z,54.50
2023-03-24T20:46:28.936Z,54.30
2023-03-24T20:49:03.717Z,54.20
2023-03-24T20:51:38.527Z,54.10
2023-03-24T20:54:11.936Z,54.00
2023-03-24T20:56:45.339Z,53.90
2023-03-24T20:59:18.955Z,53.70
2023-03-24T21:01:52.302Z,53.70
2023-03-24T21:04:27.164Z,53.60
2023-03-24T21:07:00.992Z,53.60
2023-03-24T21:09:34.331Z,53.60
2023-03-24T21:12:08.082Z,53.60
2023-03-24T21:14:42.523Z,53.70
2023-03-24T21:17:18.673Z,53.80
2023-03-24T21:19:54.720Z,53.90
2023-03-24T21:22:37.363Z,53.90
2023-03-24T21:25:11.012Z,54.00
2023-03-24T21:27:44.345Z,54.00
2023-03-24T21:30:18.888Z,54.10
2023-03-24T21:32:54.225Z,54.10
2023-03-24T21:35:30.292Z,54.10
2023-03-24T21:38:05.570Z,54.10
2023-03-24T21:40:39.699Z,54.10
2023-03-24T21:43:14.841Z,54.10
2023-03-24T21:45:53.846Z,54.10
2023-03-24T21:48:28.011Z,54.10
2023-03-24T21:51:04.096Z,54.70
2023-03-24T21:53:37.591Z,54.10
2023-03-24T21:56:10.968Z,54.10
2023-03-24T21:58:44.280Z,54.10
2023-03-24T22:01:17.697Z,54.10
2023-03-24T22:03:54.212Z,54.20
2023-03-24T22:06:29.707Z,54.20
2023-03-24T22:09:06.765Z,54.30
2023-03-24T22:11:42.836Z,54.40
2023-03-24T22:14:19.067Z,54.40
2023-03-24T22:16:52.605Z,54.30
2023-03-24T22:19:26.211Z,54.30
2023-03-24T22:22:02.148Z,54.20
2023-03-24T22:24:37.801Z,54.20
2023-03-24T22:27:11.201Z,54.20
2023-03-24T22:29:44.703Z,54.20
2023-03-24T22:32:18.284Z,54.20
2023-03-24T22:34:51.623Z,54.20
2023-03-24T22:37:27.857Z,54.20
2023-03-24T22:40:01.475Z,54.20
2023-03-24T22:42:34.758Z,54.20
2023-03-24T22:45:09.539Z,54.10
2023-03-24T22:47:42.990Z,54.10
2023-03-24T22:50:16.951Z,54.10
2023-03-24T22:52:51.668Z,54.10
2023-03-24T22:55:26.029Z,54.10
2023-03-24T22:57:59.341Z,54.20
2023-03-24T23:00:33.911Z,54.30
2023-03-24T23:03:07.353Z,54.30
2023-03-24T23:05:41.583Z,54.20
2023-03-24T23:08:17.282Z,54.20
2023-03-24T23:10:50.577Z,54.20
2023-03-24T23:13:25.401Z,54.20
2023-03-24T23:15:58.747Z,54.20
2023-03-24T23:18:32.673Z,54.10
2023-03-24T23:21:09.186Z,54.10
2023-03-24T23:23:44.817Z,54.10
2023-03-24T23:26:25.968Z,54.10
2023-03-24T23:28:59.989Z,54.10
2023-03-24T23:31:33.523Z,54.20
2023-03-24T23:34:07.689Z,54.30
2023-03-24T23:36:44.804Z,54.40
2023-03-24T23:39:19.486Z,54.50
2023-03-24T23:41:54.067Z,54.70
2023-03-24T23:44:27.392Z,54.90
2023-03-24T23:47:00.931Z,54.90
2023-03-24T23:49:34.280Z,55.60
2023-03-24T23:52:07.572Z,55.00
2023-03-24T23:54:42.281Z,55.00
2023-03-24T23:57:16.002Z,55.00
2023-03-24T23:59:49.499Z,55.00
